sensor_id;sensor_type;location;lat;lon;timestamp;P1;durP1;ratioP1;P2;durP2;ratioP2
4696;SDS011;2362;50.780;0.292;2023-04-24T00:00:53;42.25;;;26.80;;
4696;SDS011;2362;50.780;0.292;2023-04-24T00:03:22;43.72;;;25.95;;
4696;SDS011;2362;50.780;0.292;2023-04-24T00:05:49;45.28;;;28.33;;
4696;SDS011;2362;50.780;0.292;2023-04-24T00:08:14;55.65;;;28.75;;
4696;SDS011;2362;50.780;0.292;2023-04-24T00:10:40;46.10;;;28.67;;
4696;SDS011;2362;50.780;0.292;2023-04-24T00:13:06;42.50;;;27.52;;
4696;SDS011;2362;50.780;0.292;2023-04-24T00:15:32;39.97;;;26.50;;
4696;SDS011;2362;50.780;0.292;2023-04-24T00:17:58;45.67;;;27.02;;
4696;SDS011;2362;50.780;0.292;2023-04-24T00:20:24;48.55;;;29.40;;
4696;SDS011;2362;50.780;0.292;2023-04-24T00:22:49;55.75;;;27.80;;
4696;SDS011;2362;50.780;0.292;2023-04-24T00:25:18;44.50;;;27.75;;
4696;SDS011;2362;50.780;0.292;2023-04-24T00:27:44;50.10;;;28.55;;
4696;SDS011;2362;50.780;0.292;2023-04-24T00:30:09;47.90;;;27.98;;
4696;SDS011;2362;50.780;0.292;2023-04-24T00:32:35;50.15;;;28.92;;
4696;SDS011;2362;50.780;0.292;2023-04-24T00:35:01;51.38;;;30.60;;
4696;SDS011;2362;50.780;0.292;2023-04-24T00:37:27;49.97;;;30.23;;
4696;SDS011;2362;50.780;0.292;2023-04-24T00:39:53;52.55;;;30.92;;
4696;SDS011;2362;50.780;0.292;2023-04-24T00:42:19;49.97;;;29.70;;
4696;SDS011;2362;50.780;0.292;2023-04-24T00:44:45;53.30;;;29.90;;
4696;SDS011;2362;50.780;0.292;2023-04-24T00:47:12;50.42;;;28.58;;
4696;SDS011;2362;50.780;0.292;2023-04-24T00:49:38;52.30;;;30.20;;
4696;SDS011;2362;50.780;0.292;2023-04-24T00:52:03;58.13;;;31.83;;
4696;SDS011;2362;50.780;0.292;2023-04-24T00:54:33;51.47;;;30.98;;
4696;SDS011;2362;50.780;0.292;2023-04-24T00:57:00;55.05;;;32.03;;
4696;SDS011;2362;50.780;0.292;2023-04-24T00:59:27;57.13;;;31.15;;
4696;SDS011;2362;50.780;0.292;2023-04-24T01:01:53;54.75;;;32.92;;
4696;SDS011;2362;50.780;0.292;2023-04-24T01:04:19;56.42;;;30.60;;
4696;SDS011;2362;50.780;0.292;2023-04-24T01:06:45;51.80;;;31.92;;
4696;SDS011;2362;50.780;0.292;2023-04-24T01:09:11;51.90;;;31.13;;
4696;SDS011;2362;50.780;0.292;2023-04-24T01:11:37;53.67;;;30.27;;
4696;SDS011;2362;50.780;0.292;2023-04-24T01:14:03;46.45;;;29.20;;
4696;SDS011;2362;50.780;0.292;2023-04-24T01:16:29;50.47;;;30.77;;
4696;SDS011;2362;50.780;0.292;2023-04-24T01:18:54;47.90;;;30.25;;
4696;SDS011;2362;50.780;0.292;2023-04-24T01:21:20;50.42;;;29.20;;
4696;SDS011;2362;50.780;0.292;2023-04-24T01:23:48;53.00;;;30.10;;
4696;SDS011;2362;50.780;0.292;2023-04-24T01:26:15;50.35;;;29.35;;
4696;SDS011;2362;50.780;0.292;2023-04-24T01:29:06;61.03;;;30.95;;
4696;SDS011;2362;50.780;0.292;2023-04-24T01:31:58;49.88;;;28.23;;
4696;SDS011;2362;50.780;0.292;2023-04-24T01:34:24;49.25;;;28.85;;
4696;SDS011;2362;50.780;0.292;2023-04-24T01:36:50;51.53;;;30.15;;
4696;SDS011;2362;50.780;0.292;2023-04-24T01:39:16;50.05;;;28.77;;
4696;SDS011;2362;50.780;0.292;2023-04-24T01:41:42;51.38;;;29.73;;
4696;SDS011;2362;50.780;0.292;2023-04-24T01:44:07;54.15;;;29.00;;
4696;SDS011;2362;50.780;0.292;2023-04-24T01:46:33;47.67;;;27.92;;
4696;SDS011;2362;50.780;0.292;2023-04-24T01:49:01;42.20;;;27.85;;
4696;SDS011;2362;50.780;0.292;2023-04-24T01:51:27;53.47;;;28.58;;
4696;SDS011;2362;50.780;0.292;2023-04-24T01:53:53;45.38;;;26.95;;
4696;SDS011;2362;50.780;0.292;2023-04-24T01:56:19;51.83;;;27.70;;
4696;SDS011;2362;50.780;0.292;2023-04-24T01:58:46;44.60;;;26.75;;
4696;SDS011;2362;50.780;0.292;2023-04-24T02:01:20;43.47;;;25.95;;
4696;SDS011;2362;50.780;0.292;2023-04-24T02:04:10;42.38;;;27.23;;
4696;SDS011;2362;50.780;0.292;2023-04-24T02:07:02;47.15;;;27.40;;
4696;SDS011;2362;50.780;0.292;2023-04-24T02:09:27;45.30;;;26.80;;
4696;SDS011;2362;50.780;0.292;2023-04-24T02:11:53;47.30;;;26.17;;
4696;SDS011;2362;50.780;0.292;2023-04-24T02:14:18;43.03;;;26.30;;
4696;SDS011;2362;50.780;0.292;2023-04-24T02:16:44;47.30;;;26.38;;
4696;SDS011;2362;50.780;0.292;2023-04-24T02:19:10;47.00;;;25.88;;
4696;SDS011;2362;50.780;0.292;2023-04-24T02:21:36;43.88;;;26.02;;
4696;SDS011;2362;50.780;0.292;2023-04-24T02:24:01;43.00;;;27.35;;
4696;SDS011;2362;50.780;0.292;2023-04-24T02:26:27;43.17;;;26.55;;
4696;SDS011;2362;50.780;0.292;2023-04-24T02:28:53;48.53;;;26.85;;
4696;SDS011;2362;50.780;0.292;2023-04-24T02:31:19;48.30;;;27.15;;
4696;SDS011;2362;50.780;0.292;2023-04-24T02:33:44;40.65;;;24.75;;
4696;SDS011;2362;50.780;0.292;2023-04-24T02:36:10;41.03;;;25.73;;
4696;SDS011;2362;50.780;0.292;2023-04-24T02:38:36;44.65;;;26.33;;
4696;SDS011;2362;50.780;0.292;2023-04-24T02:41:27;42.13;;;25.95;;
4696;SDS011;2362;50.780;0.292;2023-04-24T02:44:22;42.25;;;26.90;;
4696;SDS011;2362;50.780;0.292;2023-04-24T02:47:13;43.92;;;25.25;;
4696;SDS011;2362;50.780;0.292;2023-04-24T02:49:40;49.42;;;26.83;;
4696;SDS011;2362;50.780;0.292;2023-04-24T02:52:06;42.60;;;25.67;;
4696;SDS011;2362;50.780;0.292;2023-04-24T02:54:32;45.65;;;26.50;;
4696;SDS011;2362;50.780;0.292;2023-04-24T02:56:58;47.03;;;25.77;;
4696;SDS011;2362;50.780;0.292;2023-04-24T02:59:23;43.28;;;25.90;;
4696;SDS011;2362;50.780;0.292;2023-04-24T03:01:49;37.70;;;25.20;;
4696;SDS011;2362;50.780;0.292;2023-04-24T03:04:15;42.25;;;25.65;;
4696;SDS011;2362;50.780;0.292;2023-04-24T03:06:41;46.08;;;24.77;;
4696;SDS011;2362;50.780;0.292;2023-04-24T03:09:07;38.75;;;23.88;;
4696;SDS011;2362;50.780;0.292;2023-04-24T03:11:32;39.42;;;23.10;;
4696;SDS011;2362;50.780;0.292;2023-04-24T03:13:58;44.20;;;24.92;;
4696;SDS011;2362;50.780;0.292;2023-04-24T03:16:24;43.03;;;25.60;;
4696;SDS011;2362;50.780;0.292;2023-04-24T03:18:51;39.97;;;24.67;;
4696;SDS011;2362;50.780;0.292;2023-04-24T03:21:17;39.75;;;23.75;;
4696;SDS011;2362;50.780;0.292;2023-04-24T03:23:43;37.72;;;24.83;;
4696;SDS011;2362;50.780;0.292;2023-04-24T03:26:09;43.20;;;25.67;;
4696;SDS011;2362;50.780;0.292;2023-04-24T03:28:35;40.38;;;25.30;;
4696;SDS011;2362;50.780;0.292;2023-04-24T03:31:02;41.00;;;25.52;;
4696;SDS011;2362;50.780;0.292;2023-04-24T03:33:28;40.63;;;24.17;;
4696;SDS011;2362;50.780;0.292;2023-04-24T03:35:54;43.47;;;26.00;;
4696;SDS011;2362;50.780;0.292;2023-04-24T03:38:19;46.17;;;26.60;;
4696;SDS011;2362;50.780;0.292;2023-04-24T03:40:45;39.13;;;24.73;;
4696;SDS011;2362;50.780;0.292;2023-04-24T03:43:11;44.65;;;27.65;;
4696;SDS011;2362;50.780;0.292;2023-04-24T03:45:36;43.83;;;24.90;;
4696;SDS011;2362;50.780;0.292;2023-04-24T03:48:02;44.58;;;24.48;;
4696;SDS011;2362;50.780;0.292;2023-04-24T03:50:28;46.08;;;25.33;;
4696;SDS011;2362;50.780;0.292;2023-04-24T03:52:54;38.35;;;25.08;;
4696;SDS011;2362;50.780;0.292;2023-04-24T03:55:20;42.42;;;25.27;;
4696;SDS011;2362;50.780;0.292;2023-04-24T03:57:45;44.28;;;24.63;;
4696;SDS011;2362;50.780;0.292;2023-04-24T04:00:11;39.05;;;25.55;;
4696;SDS011;2362;50.780;0.292;2023-04-24T04:02:37;43.97;;;24.17;;
4696;SDS011;2362;50.780;0.292;2023-04-24T04:05:03;44.42;;;25.77;;
4696;SDS011;2362;50.780;0.292;2023-04-24T04:07:29;43.15;;;25.27;;
4696;SDS011;2362;50.780;0.292;2023-04-24T04:09:55;39.60;;;24.15;;
4696;SDS011;2362;50.780;0.292;2023-04-24T04:12:20;42.85;;;24.73;;
4696;SDS011;2362;50.780;0.292;2023-04-24T04:14:46;37.67;;;23.95;;
4696;SDS011;2362;50.780;0.292;2023-04-24T04:17:11;41.92;;;25.65;;
4696;SDS011;2362;50.780;0.292;2023-04-24T04:19:37;43.10;;;25.25;;
4696;SDS011;2362;50.780;0.292;2023-04-24T04:22:03;40.50;;;23.08;;
4696;SDS011;2362;50.780;0.292;2023-04-24T04:24:31;44.90;;;24.83;;
4696;SDS011;2362;50.780;0.292;2023-04-24T04:26:57;42.40;;;25.23;;
4696;SDS011;2362;50.780;0.292;2023-04-24T04:29:23;44.30;;;24.98;;
4696;SDS011;2362;50.780;0.292;2023-04-24T04:31:48;46.90;;;25.83;;
4696;SDS011;2362;50.780;0.292;2023-04-24T04:34:14;41.38;;;25.38;;
4696;SDS011;2362;50.780;0.292;2023-04-24T04:36:40;45.65;;;26.23;;
4696;SDS011;2362;50.780;0.292;2023-04-24T04:39:07;42.88;;;26.40;;
4696;SDS011;2362;50.780;0.292;2023-04-24T04:41:59;43.83;;;25.38;;
4696;SDS011;2362;50.780;0.292;2023-04-24T04:44:51;43.67;;;27.00;;
4696;SDS011;2362;50.780;0.292;2023-04-24T04:47:17;40.58;;;25.20;;
4696;SDS011;2362;50.780;0.292;2023-04-24T04:49:43;44.20;;;25.38;;
4696;SDS011;2362;50.780;0.292;2023-04-24T04:52:09;50.08;;;26.02;;
4696;SDS011;2362;50.780;0.292;2023-04-24T04:54:35;41.95;;;24.83;;
4696;SDS011;2362;50.780;0.292;2023-04-24T04:57:00;45.85;;;25.08;;
4696;SDS011;2362;50.780;0.292;2023-04-24T04:59:26;45.97;;;25.35;;
4696;SDS011;2362;50.780;0.292;2023-04-24T05:01:52;41.75;;;25.40;;
4696;SDS011;2362;50.780;0.292;2023-04-24T05:04:18;42.15;;;24.70;;
4696;SDS011;2362;50.780;0.292;2023-04-24T05:06:43;39.38;;;23.70;;
4696;SDS011;2362;50.780;0.292;2023-04-24T05:09:09;37.45;;;24.77;;
4696;SDS011;2362;50.780;0.292;2023-04-24T05:11:35;35.58;;;22.25;;
4696;SDS011;2362;50.780;0.292;2023-04-24T05:14:01;39.35;;;23.08;;
4696;SDS011;2362;50.780;0.292;2023-04-24T05:16:26;36.58;;;22.27;;
4696;SDS011;2362;50.780;0.292;2023-04-24T05:18:52;45.97;;;24.70;;
4696;SDS011;2362;50.780;0.292;2023-04-24T05:21:18;36.55;;;23.95;;
4696;SDS011;2362;50.780;0.292;2023-04-24T05:23:43;34.10;;;21.55;;
4696;SDS011;2362;50.780;0.292;2023-04-24T05:26:09;40.30;;;24.55;;
4696;SDS011;2362;50.780;0.292;2023-04-24T05:28:34;44.72;;;22.63;;
4696;SDS011;2362;50.780;0.292;2023-04-24T05:31:01;35.95;;;22.13;;
4696;SDS011;2362;50.780;0.292;2023-04-24T05:33:28;32.97;;;20.42;;
4696;SDS011;2362;50.780;0.292;2023-04-24T05:35:53;32.25;;;21.25;;
4696;SDS011;2362;50.780;0.292;2023-04-24T05:38:19;34.10;;;21.02;;
4696;SDS011;2362;50.780;0.292;2023-04-24T05:40:45;33.10;;;20.35;;
4696;SDS011;2362;50.780;0.292;2023-04-24T05:43:11;31.95;;;19.35;;
4696;SDS011;2362;50.780;0.292;2023-04-24T05:45:37;32.40;;;19.23;;
4696;SDS011;2362;50.780;0.292;2023-04-24T05:48:03;33.58;;;19.40;;
4696;SDS011;2362;50.780;0.292;2023-04-24T05:50:31;29.15;;;18.77;;
4696;SDS011;2362;50.780;0.292;2023-04-24T05:52:57;30.00;;;17.73;;
4696;SDS011;2362;50.780;0.292;2023-04-24T05:55:27;22.08;;;15.35;;
4696;SDS011;2362;50.780;0.292;2023-04-24T05:57:53;27.80;;;15.50;;
4696;SDS011;2362;50.780;0.292;2023-04-24T06:00:19;26.95;;;15.48;;
4696;SDS011;2362;50.780;0.292;2023-04-24T06:02:45;22.42;;;14.02;;
4696;SDS011;2362;50.780;0.292;2023-04-24T06:05:12;27.92;;;13.77;;
4696;SDS011;2362;50.780;0.292;2023-04-24T06:07:37;20.85;;;13.43;;
4696;SDS011;2362;50.780;0.292;2023-04-24T06:10:03;43.90;;;13.60;;
4696;SDS011;2362;50.780;0.292;2023-04-24T06:12:29;24.73;;;12.45;;
4696;SDS011;2362;50.780;0.292;2023-04-24T06:14:55;21.27;;;11.70;;
4696;SDS011;2362;50.780;0.292;2023-04-24T06:17:21;20.42;;;11.90;;
4696;SDS011;2362;50.780;0.292;2023-04-24T06:19:46;18.52;;;11.30;;
4696;SDS011;2362;50.780;0.292;2023-04-24T06:22:37;18.02;;;10.48;;
4696;SDS011;2362;50.780;0.292;2023-04-24T06:25:05;20.45;;;11.88;;
4696;SDS011;2362;50.780;0.292;2023-04-24T06:27:32;20.73;;;11.40;;
4696;SDS011;2362;50.780;0.292;2023-04-24T06:29:58;17.75;;;10.45;;
4696;SDS011;2362;50.780;0.292;2023-04-24T06:32:23;19.10;;;10.40;;
4696;SDS011;2362;50.780;0.292;2023-04-24T06:34:53;13.05;;;9.00;;
4696;SDS011;2362;50.780;0.292;2023-04-24T06:37:19;19.42;;;9.77;;
4696;SDS011;2362;50.780;0.292;2023-04-24T06:39:45;19.48;;;10.85;;
4696;SDS011;2362;50.780;0.292;2023-04-24T06:42:11;20.70;;;10.43;;
4696;SDS011;2362;50.780;0.292;2023-04-24T06:44:37;21.85;;;10.38;;
4696;SDS011;2362;50.780;0.292;2023-04-24T06:47:12;21.15;;;9.77;;
4696;SDS011;2362;50.780;0.292;2023-04-24T06:49:38;18.00;;;10.02;;
4696;SDS011;2362;50.780;0.292;2023-04-24T06:52:05;16.50;;;8.75;;
4696;SDS011;2362;50.780;0.292;2023-04-24T06:54:31;17.95;;;10.57;;
4696;SDS011;2362;50.780;0.292;2023-04-24T06:56:58;19.92;;;11.23;;
4696;SDS011;2362;50.780;0.292;2023-04-24T06:59:28;23.85;;;11.48;;
4696;SDS011;2362;50.780;0.292;2023-04-24T07:01:55;25.27;;;11.02;;
4696;SDS011;2362;50.780;0.292;2023-04-24T07:04:20;21.40;;;10.25;;
4696;SDS011;2362;50.780;0.292;2023-04-24T07:06:47;22.30;;;10.77;;
4696;SDS011;2362;50.780;0.292;2023-04-24T07:09:14;19.77;;;10.27;;
4696;SDS011;2362;50.780;0.292;2023-04-24T07:11:41;20.92;;;10.63;;
4696;SDS011;2362;50.780;0.292;2023-04-24T07:14:07;18.67;;;10.73;;
4696;SDS011;2362;50.780;0.292;2023-04-24T07:16:33;24.52;;;11.75;;
4696;SDS011;2362;50.780;0.292;2023-04-24T07:18:58;20.48;;;10.15;;
4696;SDS011;2362;50.780;0.292;2023-04-24T07:21:25;23.73;;;11.82;;
4696;SDS011;2362;50.780;0.292;2023-04-24T07:23:51;28.98;;;12.57;;
4696;SDS011;2362;50.780;0.292;2023-04-24T07:26:42;29.85;;;12.38;;
4696;SDS011;2362;50.780;0.292;2023-04-24T07:29:33;26.00;;;11.63;;
4696;SDS011;2362;50.780;0.292;2023-04-24T07:32:24;20.75;;;11.57;;
4696;SDS011;2362;50.780;0.292;2023-04-24T07:34:50;20.77;;;12.45;;
4696;SDS011;2362;50.780;0.292;2023-04-24T07:37:16;24.27;;;12.75;;
4696;SDS011;2362;50.780;0.292;2023-04-24T07:39:42;23.42;;;12.60;;
4696;SDS011;2362;50.780;0.292;2023-04-24T07:42:07;16.83;;;11.50;;
4696;SDS011;2362;50.780;0.292;2023-04-24T07:44:33;20.70;;;12.05;;
4696;SDS011;2362;50.780;0.292;2023-04-24T07:46:59;19.85;;;12.63;;
4696;SDS011;2362;50.780;0.292;2023-04-24T07:49:24;21.65;;;12.77;;
4696;SDS011;2362;50.780;0.292;2023-04-24T07:51:50;21.98;;;13.20;;
4696;SDS011;2362;50.780;0.292;2023-04-24T07:54:16;26.85;;;13.18;;
4696;SDS011;2362;50.780;0.292;2023-04-24T07:56:42;25.45;;;14.55;;
4696;SDS011;2362;50.780;0.292;2023-04-24T07:59:08;23.27;;;12.40;;
4696;SDS011;2362;50.780;0.292;2023-04-24T08:01:35;20.77;;;12.05;;
4696;SDS011;2362;50.780;0.292;2023-04-24T08:04:01;26.52;;;12.90;;
4696;SDS011;2362;50.780;0.292;2023-04-24T08:06:27;21.10;;;11.07;;
4696;SDS011;2362;50.780;0.292;2023-04-24T08:08:58;22.55;;;12.23;;
4696;SDS011;2362;50.780;0.292;2023-04-24T08:11:25;21.92;;;12.10;;
4696;SDS011;2362;50.780;0.292;2023-04-24T08:13:51;27.75;;;11.75;;
4696;SDS011;2362;50.780;0.292;2023-04-24T08:16:17;18.38;;;11.82;;
4696;SDS011;2362;50.780;0.292;2023-04-24T08:18:43;22.20;;;12.32;;
4696;SDS011;2362;50.780;0.292;2023-04-24T08:21:08;23.80;;;12.65;;
4696;SDS011;2362;50.780;0.292;2023-04-24T08:23:34;22.17;;;11.13;;
4696;SDS011;2362;50.780;0.292;2023-04-24T08:25:59;24.13;;;11.63;;
4696;SDS011;2362;50.780;0.292;2023-04-24T08:28:25;21.75;;;11.50;;
4696;SDS011;2362;50.780;0.292;2023-04-24T08:30:51;20.30;;;10.82;;
4696;SDS011;2362;50.780;0.292;2023-04-24T08:33:20;17.00;;;11.05;;
4696;SDS011;2362;50.780;0.292;2023-04-24T08:35:46;23.52;;;11.65;;
4696;SDS011;2362;50.780;0.292;2023-04-24T08:38:12;26.40;;;12.00;;
4696;SDS011;2362;50.780;0.292;2023-04-24T08:40:38;19.98;;;11.90;;
4696;SDS011;2362;50.780;0.292;2023-04-24T08:43:04;21.15;;;10.77;;
4696;SDS011;2362;50.780;0.292;2023-04-24T08:45:31;21.73;;;11.65;;
4696;SDS011;2362;50.780;0.292;2023-04-24T08:47:57;22.35;;;11.75;;
4696;SDS011;2362;50.780;0.292;2023-04-24T08:50:24;16.38;;;10.32;;
4696;SDS011;2362;50.780;0.292;2023-04-24T08:52:51;21.25;;;10.95;;
4696;SDS011;2362;50.780;0.292;2023-04-24T08:55:19;18.73;;;11.05;;
4696;SDS011;2362;50.780;0.292;2023-04-24T08:57:46;15.35;;;9.75;;
4696;SDS011;2362;50.780;0.292;2023-04-24T09:00:17;18.02;;;10.90;;
4696;SDS011;2362;50.780;0.292;2023-04-24T09:02:43;24.02;;;10.75;;
4696;SDS011;2362;50.780;0.292;2023-04-24T09:05:12;22.30;;;12.40;;
4696;SDS011;2362;50.780;0.292;2023-04-24T09:07:39;22.60;;;11.85;;
4696;SDS011;2362;50.780;0.292;2023-04-24T09:10:08;21.67;;;12.30;;
4696;SDS011;2362;50.780;0.292;2023-04-24T09:12:34;17.98;;;11.23;;
4696;SDS011;2362;50.780;0.292;2023-04-24T09:15:01;17.67;;;10.85;;
4696;SDS011;2362;50.780;0.292;2023-04-24T09:17:28;22.38;;;12.05;;
4696;SDS011;2362;50.780;0.292;2023-04-24T09:19:55;21.65;;;12.93;;
4696;SDS011;2362;50.780;0.292;2023-04-24T09:22:21;21.52;;;12.52;;
4696;SDS011;2362;50.780;0.292;2023-04-24T09:24:47;23.55;;;13.20;;
4696;SDS011;2362;50.780;0.292;2023-04-24T09:27:13;26.70;;;12.88;;
4696;SDS011;2362;50.780;0.292;2023-04-24T09:30:14;21.38;;;12.07;;
4696;SDS011;2362;50.780;0.292;2023-04-24T09:32:33;17.92;;;12.70;;
4696;SDS011;2362;50.780;0.292;2023-04-24T09:35:09;21.10;;;12.65;;
4696;SDS011;2362;50.780;0.292;2023-04-24T09:37:37;21.13;;;13.85;;
4696;SDS011;2362;50.780;0.292;2023-04-24T09:40:20;25.15;;;14.10;;
4696;SDS011;2362;50.780;0.292;2023-04-24T09:42:53;22.45;;;13.48;;
4696;SDS011;2362;50.780;0.292;2023-04-24T09:45:43;24.00;;;12.38;;
4696;SDS011;2362;50.780;0.292;2023-04-24T09:48:09;18.73;;;12.55;;
4696;SDS011;2362;50.780;0.292;2023-04-24T09:50:35;23.77;;;13.43;;
4696;SDS011;2362;50.780;0.292;2023-04-24T09:53:01;23.50;;;13.13;;
4696;SDS011;2362;50.780;0.292;2023-04-24T09:55:28;29.33;;;12.38;;
4696;SDS011;2362;50.780;0.292;2023-04-24T09:57:55;19.73;;;11.63;;
4696;SDS011;2362;50.780;0.292;2023-04-24T10:00:23;22.08;;;11.73;;
4696;SDS011;2362;50.780;0.292;2023-04-24T10:02:54;22.83;;;12.32;;
4696;SDS011;2362;50.780;0.292;2023-04-24T10:05:24;20.35;;;12.50;;
4696;SDS011;2362;50.780;0.292;2023-04-24T10:08:05;21.10;;;11.30;;
4696;SDS011;2362;50.780;0.292;2023-04-24T10:10:34;19.10;;;10.82;;
4696;SDS011;2362;50.780;0.292;2023-04-24T10:13:03;19.75;;;11.13;;
4696;SDS011;2362;50.780;0.292;2023-04-24T10:15:29;16.90;;;11.00;;
4696;SDS011;2362;50.780;0.292;2023-04-24T10:17:57;22.45;;;10.60;;
4696;SDS011;2362;50.780;0.292;2023-04-24T10:20:25;17.70;;;9.13;;
4696;SDS011;2362;50.780;0.292;2023-04-24T10:22:52;18.95;;;9.25;;
4696;SDS011;2362;50.780;0.292;2023-04-24T10:25:40;15.25;;;9.35;;
4696;SDS011;2362;50.780;0.292;2023-04-24T10:28:05;15.77;;;9.35;;
4696;SDS011;2362;50.780;0.292;2023-04-24T10:30:34;12.77;;;8.38;;
4696;SDS011;2362;50.780;0.292;2023-04-24T10:33:03;14.82;;;8.88;;
4696;SDS011;2362;50.780;0.292;2023-04-24T10:35:35;17.23;;;8.63;;
4696;SDS011;2362;50.780;0.292;2023-04-24T10:38:07;19.17;;;9.27;;
4696;SDS011;2362;50.780;0.292;2023-04-24T10:40:36;14.52;;;8.60;;
4696;SDS011;2362;50.780;0.292;2023-04-24T10:43:02;12.65;;;8.80;;
4696;SDS011;2362;50.780;0.292;2023-04-24T10:45:33;13.77;;;9.38;;
4696;SDS011;2362;50.780;0.292;2023-04-24T10:48:08;12.23;;;8.07;;
4696;SDS011;2362;50.780;0.292;2023-04-24T10:51:12;13.68;;;8.38;;
4696;SDS011;2362;50.780;0.292;2023-04-24T10:53:35;18.90;;;9.35;;
4696;SDS011;2362;50.780;0.292;2023-04-24T10:56:05;18.95;;;9.32;;
4696;SDS011;2362;50.780;0.292;2023-04-24T10:58:36;18.23;;;7.63;;
4696;SDS011;2362;50.780;0.292;2023-04-24T11:01:03;13.25;;;7.15;;
4696;SDS011;2362;50.780;0.292;2023-04-24T11:03:33;12.73;;;7.90;;
4696;SDS011;2362;50.780;0.292;2023-04-24T11:06:04;17.35;;;8.50;;
4696;SDS011;2362;50.780;0.292;2023-04-24T11:11:04;17.67;;;7.95;;
4696;SDS011;2362;50.780;0.292;2023-04-24T11:19:25;13.10;;;7.80;;
4696;SDS011;2362;50.780;0.292;2023-04-24T11:21:58;19.58;;;8.40;;
4696;SDS011;2362;50.780;0.292;2023-04-24T11:24:37;15.52;;;8.07;;
4696;SDS011;2362;50.780;0.292;2023-04-24T11:27:12;17.20;;;6.97;;
4696;SDS011;2362;50.780;0.292;2023-04-24T11:29:43;20.00;;;6.47;;
4696;SDS011;2362;50.780;0.292;2023-04-24T11:37:37;11.02;;;5.43;;
4696;SDS011;2362;50.780;0.292;2023-04-24T11:40:05;10.88;;;4.78;;
4696;SDS011;2362;50.780;0.292;2023-04-24T11:42:39;7.30;;;4.38;;
4696;SDS011;2362;50.780;0.292;2023-04-24T11:47:35;20.40;;;6.68;;
4696;SDS011;2362;50.780;0.292;2023-04-24T11:50:01;16.58;;;7.20;;
4696;SDS011;2362;50.780;0.292;2023-04-24T11:52:28;12.82;;;6.65;;
4696;SDS011;2362;50.780;0.292;2023-04-24T11:54:54;16.45;;;6.28;;
4696;SDS011;2362;50.780;0.292;2023-04-24T11:57:21;18.60;;;6.22;;
4696;SDS011;2362;50.780;0.292;2023-04-24T11:59:49;17.67;;;6.95;;
4696;SDS011;2362;50.780;0.292;2023-04-24T12:02:24;14.88;;;6.97;;
4696;SDS011;2362;50.780;0.292;2023-04-24T12:04:54;15.38;;;6.40;;
4696;SDS011;2362;50.780;0.292;2023-04-24T12:07:20;20.88;;;6.18;;
4696;SDS011;2362;50.780;0.292;2023-04-24T12:09:47;8.68;;;4.35;;
4696;SDS011;2362;50.780;0.292;2023-04-24T12:12:15;17.63;;;5.90;;
4696;SDS011;2362;50.780;0.292;2023-04-24T12:14:46;10.90;;;5.45;;
4696;SDS011;2362;50.780;0.292;2023-04-24T12:17:23;13.93;;;6.03;;
4696;SDS011;2362;50.780;0.292;2023-04-24T12:20:03;14.82;;;5.03;;
4696;SDS011;2362;50.780;0.292;2023-04-24T12:25:12;17.38;;;5.18;;
4696;SDS011;2362;50.780;0.292;2023-04-24T12:27:39;12.60;;;4.63;;
4696;SDS011;2362;50.780;0.292;2023-04-24T12:30:09;12.73;;;4.43;;
4696;SDS011;2362;50.780;0.292;2023-04-24T12:32:40;13.75;;;4.22;;
4696;SDS011;2362;50.780;0.292;2023-04-24T12:35:11;12.48;;;5.20;;
4696;SDS011;2362;50.780;0.292;2023-04-24T12:37:41;11.55;;;4.85;;
4696;SDS011;2362;50.780;0.292;2023-04-24T12:40:08;11.45;;;5.53;;
4696;SDS011;2362;50.780;0.292;2023-04-24T12:42:36;11.20;;;4.97;;
4696;SDS011;2362;50.780;0.292;2023-04-24T12:45:10;9.90;;;5.18;;
4696;SDS011;2362;50.780;0.292;2023-04-24T12:47:37;11.10;;;4.85;;
4696;SDS011;2362;50.780;0.292;2023-04-24T12:50:03;20.15;;;5.30;;
4696;SDS011;2362;50.780;0.292;2023-04-24T12:52:31;8.73;;;4.78;;
4696;SDS011;2362;50.780;0.292;2023-04-24T12:54:58;11.20;;;4.97;;
4696;SDS011;2362;50.780;0.292;2023-04-24T12:57:25;18.58;;;6.40;;
4696;SDS011;2362;50.780;0.292;2023-04-24T12:59:55;19.10;;;6.05;;
4696;SDS011;2362;50.780;0.292;2023-04-24T13:02:27;19.60;;;5.97;;
4696;SDS011;2362;50.780;0.292;2023-04-24T13:04:56;9.43;;;5.25;;
4696;SDS011;2362;50.780;0.292;2023-04-24T13:07:23;15.23;;;5.38;;
4696;SDS011;2362;50.780;0.292;2023-04-24T13:09:49;13.15;;;5.53;;
4696;SDS011;2362;50.780;0.292;2023-04-24T13:12:16;12.95;;;5.40;;
4696;SDS011;2362;50.780;0.292;2023-04-24T13:14:41;15.07;;;5.05;;
4696;SDS011;2362;50.780;0.292;2023-04-24T13:17:07;17.73;;;5.75;;
4696;SDS011;2362;50.780;0.292;2023-04-24T13:19:37;16.50;;;5.72;;
4696;SDS011;2362;50.780;0.292;2023-04-24T13:22:04;13.82;;;5.20;;
4696;SDS011;2362;50.780;0.292;2023-04-24T13:24:30;13.95;;;5.78;;
4696;SDS011;2362;50.780;0.292;2023-04-24T13:26:57;12.68;;;5.32;;
4696;SDS011;2362;50.780;0.292;2023-04-24T13:29:23;15.93;;;5.18;;
4696;SDS011;2362;50.780;0.292;2023-04-24T13:31:52;10.20;;;3.95;;
4696;SDS011;2362;50.780;0.292;2023-04-24T13:34:24;11.77;;;4.38;;
4696;SDS011;2362;50.780;0.292;2023-04-24T13:36:53;10.45;;;4.10;;
4696;SDS011;2362;50.780;0.292;2023-04-24T13:39:21;13.40;;;4.50;;
4696;SDS011;2362;50.780;0.292;2023-04-24T13:41:47;8.57;;;4.30;;
4696;SDS011;2362;50.780;0.292;2023-04-24T13:44:14;11.30;;;5.10;;
4696;SDS011;2362;50.780;0.292;2023-04-24T13:46:40;13.20;;;4.90;;
4696;SDS011;2362;50.780;0.292;2023-04-24T13:49:08;16.23;;;5.35;;
4696;SDS011;2362;50.780;0.292;2023-04-24T13:51:34;12.90;;;4.90;;
4696;SDS011;2362;50.780;0.292;2023-04-24T13:54:00;16.80;;;4.68;;
4696;SDS011;2362;50.780;0.292;2023-04-24T13:56:25;11.15;;;4.80;;
4696;SDS011;2362;50.780;0.292;2023-04-24T13:58:51;11.80;;;4.78;;
4696;SDS011;2362;50.780;0.292;2023-04-24T14:01:18;15.55;;;5.40;;
4696;SDS011;2362;50.780;0.292;2023-04-24T14:03:44;17.08;;;4.88;;
4696;SDS011;2362;50.780;0.292;2023-04-24T14:06:10;15.65;;;4.95;;
4696;SDS011;2362;50.780;0.292;2023-04-24T14:08:36;17.17;;;4.70;;
4696;SDS011;2362;50.780;0.292;2023-04-24T14:11:01;19.98;;;4.57;;
4696;SDS011;2362;50.780;0.292;2023-04-24T14:13:27;20.38;;;3.50;;
4696;SDS011;2362;50.780;0.292;2023-04-24T14:15:53;15.43;;;4.25;;
4696;SDS011;2362;50.780;0.292;2023-04-24T14:18:19;20.65;;;3.97;;
4696;SDS011;2362;50.780;0.292;2023-04-24T14:20:45;16.77;;;4.90;;
4696;SDS011;2362;50.780;0.292;2023-04-24T14:23:11;15.70;;;4.10;;
4696;SDS011;2362;50.780;0.292;2023-04-24T14:25:36;15.07;;;4.50;;
4696;SDS011;2362;50.780;0.292;2023-04-24T14:28:02;16.45;;;4.35;;
4696;SDS011;2362;50.780;0.292;2023-04-24T14:30:28;17.30;;;3.58;;
4696;SDS011;2362;50.780;0.292;2023-04-24T14:32:53;17.55;;;3.95;;
4696;SDS011;2362;50.780;0.292;2023-04-24T14:35:19;16.77;;;3.85;;
4696;SDS011;2362;50.780;0.292;2023-04-24T14:37:45;18.60;;;4.93;;
4696;SDS011;2362;50.780;0.292;2023-04-24T14:40:10;22.30;;;4.68;;
4696;SDS011;2362;50.780;0.292;2023-04-24T14:42:36;13.55;;;4.80;;
4696;SDS011;2362;50.780;0.292;2023-04-24T14:45:02;11.85;;;4.07;;
4696;SDS011;2362;50.780;0.292;2023-04-24T14:47:28;13.50;;;4.65;;
4696;SDS011;2362;50.780;0.292;2023-04-24T14:49:54;13.38;;;4.07;;
4696;SDS011;2362;50.780;0.292;2023-04-24T14:52:20;24.30;;;4.70;;
4696;SDS011;2362;50.780;0.292;2023-04-24T14:54:45;15.50;;;3.85;;
4696;SDS011;2362;50.780;0.292;2023-04-24T14:57:11;17.95;;;3.72;;
4696;SDS011;2362;50.780;0.292;2023-04-24T14:59:37;22.15;;;4.97;;
4696;SDS011;2362;50.780;0.292;2023-04-24T15:02:02;25.77;;;4.13;;
4696;SDS011;2362;50.780;0.292;2023-04-24T15:04:28;18.58;;;4.55;;
4696;SDS011;2362;50.780;0.292;2023-04-24T15:06:56;13.07;;;3.60;;
4696;SDS011;2362;50.780;0.292;2023-04-24T15:09:22;16.48;;;3.38;;
4696;SDS011;2362;50.780;0.292;2023-04-24T15:11:49;9.05;;;2.95;;
4696;SDS011;2362;50.780;0.292;2023-04-24T15:14:15;19.48;;;4.53;;
4696;SDS011;2362;50.780;0.292;2023-04-24T15:16:42;17.92;;;3.33;;